Time;durP1;ratioP1;P1;durP2;ratioP2;P2;SDS_P1;SDS_P2;PMS_P1;PMS_P2;Temp;Humidity;BMP_temperature;BMP_pressure;BME280_temperature;BME280_humidity;BME280_pressure;Samples;Min_cycle;Max_cycle;Signal;HPM_P1;HPM_P2
2022/01/18 00:01:30;;;;;;;13.93;3.40;;;;;;;;;;5039597;28;20017;-79
2022/01/18 00:03:57;;;;;;;16.42;3.42;;;;;;;;;;5039534;28;20449;-78
2022/01/18 00:06:22;;;;;;;22.95;3.40;;;;;;;;;;5039361;28;20034;-79
2022/01/18 00:08:48;;;;;;;10.30;3.03;;;;;;;;;;5038852;28;20395;-79
2022/01/18 00:11:15;;;;;;;16.40;3.50;;;;;;;;;;5039130;28;20022;-79
2022/01/18 00:13:43;;;;;;;11.38;2.70;;;;;;;;;;5039154;28;20398;-78
2022/01/18 00:16:37;;;;;;;22.67;3.13;;;;;;;;;;5039204;28;20036;-79
2022/01/18 00:19:07;;;;;;;13.95;2.78;;;;;;;;;;5038217;28;20045;-79
2022/01/18 00:21:48;;;;;;;12.57;2.90;;;;;;;;;;5037983;28;20029;-77
2022/01/18 00:24:14;;;;;;;9.60;2.55;;;;;;;;;;5037781;28;20036;-78
2022/01/18 00:26:39;;;;;;;18.42;3.20;;;;;;;;;;5037715;28;20025;-78
2022/01/18 00:29:09;;;;;;;17.30;3.42;;;;;;;;;;5037266;28;20017;-78
2022/01/18 00:34:11;;;;;;;15.73;3.63;;;;;;;;;;5038968;28;20034;-78
2022/01/18 00:39:14;;;;;;;12.43;2.88;;;;;;;;;;5036955;28;20040;-78
2022/01/18 00:41:39;;;;;;;16.90;2.92;;;;;;;;;;5038201;28;20017;-77
2022/01/18 00:44:05;;;;;;;14.07;3.67;;;;;;;;;;5037166;28;20041;-78
2022/01/18 00:46:31;;;;;;;16.98;3.28;;;;;;;;;;5037295;28;20026;-79
2022/01/18 00:49:00;;;;;;;14.65;2.53;;;;;;;;;;5037068;28;20461;-78
2022/01/18 00:51:27;;;;;;;13.95;2.72;;;;;;;;;;5018673;28;20450;-80
2022/01/18 00:53:52;;;;;;;12.40;2.97;;;;;;;;;;5017855;28;20052;-79
2022/01/18 00:56:27;;;;;;;10.68;2.95;;;;;;;;;;5037044;28;20029;-79
2022/01/18 00:58:54;;;;;;;16.15;3.72;;;;;;;;;;5035944;28;20471;-77
2022/01/18 01:01:21;;;;;;;15.15;3.20;;;;;;;;;;5036741;28;20025;-79
2022/01/18 01:03:48;;;;;;;15.60;3.65;;;;;;;;;;5035134;28;20021;-76
2022/01/18 01:06:13;;;;;;;16.48;3.15;;;;;;;;;;5036062;28;20021;-77
2022/01/18 01:08:39;;;;;;;14.43;3.30;;;;;;;;;;5036617;28;20026;-78
2022/01/18 01:11:06;;;;;;;11.43;3.30;;;;;;;;;;5036981;28;20116;-78
2022/01/18 01:13:33;;;;;;;13.57;3.20;;;;;;;;;;5035972;28;20053;-79
2022/01/18 01:45:26;;;;;;;19.23;3.08;;;;;;;;;;5037754;28;20037;-79
2022/01/18 01:47:53;;;;;;;12.07;3.20;;;;;;;;;;5037276;28;20479;-78
2022/01/18 01:50:20;;;;;;;18.67;3.03;;;;;;;;;;5036632;28;20061;-79
2022/01/18 01:52:50;;;;;;;21.88;3.55;;;;;;;;;;5037373;28;20045;-79
2022/01/18 01:55:17;;;;;;;28.05;3.38;;;;;;;;;;5037179;28;20060;-78
2022/01/18 01:57:42;;;;;;;27.27;3.83;;;;;;;;;;5036939;28;20017;-79
2022/01/18 02:00:18;;;;;;;22.80;3.80;;;;;;;;;;5035498;28;20029;-79
2022/01/18 02:02:43;;;;;;;15.00;3.13;;;;;;;;;;5037568;28;20089;-78
2022/01/18 02:05:09;;;;;;;12.25;3.55;;;;;;;;;;5037334;28;20060;-79
2022/01/18 02:07:35;;;;;;;20.75;3.50;;;;;;;;;;5037591;28;20021;-79
2022/01/18 02:10:00;;;;;;;17.92;3.50;;;;;;;;;;5037617;28;20032;-79
2022/01/18 02:12:26;;;;;;;16.80;3.80;;;;;;;;;;5019714;28;20033;-79
2022/01/18 02:14:57;;;;;;;17.27;3.70;;;;;;;;;;5037358;28;20040;-79
2022/01/18 02:22:51;;;;;;;13.00;3.00;;;;;;;;;;5037602;28;19955;-79
2022/01/18 02:25:17;;;;;;;12.75;3.10;;;;;;;;;;5020032;28;20022;-79
2022/01/18 02:27:42;;;;;;;14.20;3.08;;;;;;;;;;5040883;28;20029;-78
2022/01/18 02:30:08;;;;;;;33.58;4.20;;;;;;;;;;5041313;28;20036;-78
2022/01/18 02:32:33;;;;;;;20.02;3.30;;;;;;;;;;5023094;28;20025;-79
2022/01/18 02:34:58;;;;;;;25.08;3.90;;;;;;;;;;5040538;28;20025;-79
2022/01/18 02:37:24;;;;;;;17.38;3.58;;;;;;;;;;5040901;28;20403;-79
2022/01/18 02:39:49;;;;;;;15.32;3.50;;;;;;;;;;5039667;28;20395;-79
2022/01/18 02:42:23;;;;;;;27.77;3.47;;;;;;;;;;5040406;28;20394;-79
2022/01/18 02:44:50;;;;;;;20.67;3.35;;;;;;;;;;5039654;28;20143;-78
2022/01/18 02:47:19;;;;;;;19.98;3.42;;;;;;;;;;5021386;28;20032;-78
2022/01/18 02:49:44;;;;;;;22.00;3.58;;;;;;;;;;5039334;28;20086;-78
2022/01/18 02:52:10;;;;;;;19.52;3.47;;;;;;;;;;5039836;28;20053;-80
2022/01/18 02:54:35;;;;;;;28.17;3.80;;;;;;;;;;5040250;28;20087;-79
2022/01/18 02:57:03;;;;;;;15.13;3.22;;;;;;;;;;5040125;28;20028;-78
2022/01/18 03:05:05;;;;;;;21.42;3.28;;;;;;;;;;5040108;28;20043;-79
2022/01/18 03:07:31;;;;;;;23.70;3.65;;;;;;;;;;5039714;28;20025;-79
2022/01/18 03:09:56;;;;;;;25.33;3.40;;;;;;;;;;5039705;28;20038;-79
2022/01/18 03:12:21;;;;;;;26.50;3.13;;;;;;;;;;5039719;28;20044;-79
2022/01/18 03:14:47;;;;;;;24.30;3.25;;;;;;;;;;5039398;28;20026;-79
2022/01/18 03:17:12;;;;;;;18.77;3.70;;;;;;;;;;5039375;28;20072;-78
2022/01/18 03:19:37;;;;;;;23.00;2.78;;;;;;;;;;5037755;28;20029;-79
2022/01/18 03:22:04;;;;;;;20.10;3.20;;;;;;;;;;5038012;28;20026;-78
2022/01/18 03:29:39;;;;;;;21.80;3.20;;;;;;;;;;5039202;28;20103;-78
2022/01/18 03:32:04;;;;;;;22.80;3.50;;;;;;;;;;5039356;28;20479;-79
2022/01/18 03:34:30;;;;;;;28.90;3.70;;;;;;;;;;5039378;28;20095;-79
2022/01/18 03:36:55;;;;;;;16.88;3.28;;;;;;;;;;5038326;28;20044;-79
2022/01/18 03:39:21;;;;;;;19.60;3.03;;;;;;;;;;5037653;28;20022;-79
2022/01/18 03:41:53;;;;;;;42.95;3.53;;;;;;;;;;5040560;28;20025;-78
2022/01/18 03:44:21;;;;;;;34.50;3.63;;;;;;;;;;5039727;28;20051;-78
2022/01/18 03:46:47;;;;;;;20.95;2.65;;;;;;;;;;5039276;28;20104;-79
2022/01/18 03:49:12;;;;;;;30.25;3.38;;;;;;;;;;5039809;28;20060;-79
2022/01/18 03:51:38;;;;;;;19.63;3.30;;;;;;;;;;5039706;28;20026;-78
2022/01/18 03:54:04;;;;;;;28.45;3.78;;;;;;;;;;5039366;28;20483;-79
2022/01/18 03:56:29;;;;;;;35.55;3.40;;;;;;;;;;5039706;28;20056;-79
2022/01/18 03:58:54;;;;;;;26.15;4.00;;;;;;;;;;5039424;28;20021;-79
2022/01/18 04:01:19;;;;;;;24.85;3.30;;;;;;;;;;5021475;28;20108;-79
2022/01/18 04:03:45;;;;;;;34.90;3.30;;;;;;;;;;5039286;28;20025;-78
2022/01/18 04:06:10;;;;;;;21.58;2.58;;;;;;;;;;5039240;28;20506;-79
2022/01/18 04:08:35;;;;;;;41.40;3.97;;;;;;;;;;5038576;28;20075;-78
2022/01/18 04:11:00;;;;;;;23.30;2.80;;;;;;;;;;5020442;28;20029;-77
2022/01/18 04:13:26;;;;;;;26.58;4.10;;;;;;;;;;5038681;28;20391;-79
2022/01/18 04:15:51;;;;;;;27.83;3.75;;;;;;;;;;5038028;28;20065;-78
2022/01/18 04:18:27;;;;;;;23.30;3.45;;;;;;;;;;5038353;28;20053;-78
2022/01/18 04:28:53;;;;;;;25.92;3.28;;;;;;;;;;5037565;28;20029;-78
2022/01/18 04:31:19;;;;;;;13.38;3.30;;;;;;;;;;5037408;28;20084;-78
2022/01/18 04:33:44;;;;;;;36.70;3.53;;;;;;;;;;5037440;28;20502;-77
2022/01/18 04:36:10;;;;;;;23.98;2.97;;;;;;;;;;5036954;28;20025;-78
2022/01/18 04:38:37;;;;;;;35.50;3.40;;;;;;;;;;5037720;28;20033;-80
2022/01/18 04:41:09;;;;;;;27.85;3.70;;;;;;;;;;5036914;28;20467;-79
2022/01/18 04:48:48;;;;;;;26.58;3.85;;;;;;;;;;5039127;28;20032;-78
2022/01/18 04:51:14;;;;;;;35.60;3.45;;;;;;;;;;5020828;28;20477;-78
2022/01/18 04:53:43;;;;;;;33.75;3.47;;;;;;;;;;5037822;28;20104;-78
2022/01/18 04:56:14;;;;;;;39.88;4.20;;;;;;;;;;5037607;28;20089;-78
2022/01/18 04:58:40;;;;;;;42.75;3.72;;;;;;;;;;5038270;28;20032;-78
2022/01/18 05:01:06;;;;;;;32.47;3.95;;;;;;;;;;5037443;28;20025;-78
2022/01/18 05:03:32;;;;;;;26.25;3.38;;;;;;;;;;5038026;28;20112;-78
2022/01/18 05:06:01;;;;;;;19.50;3.50;;;;;;;;;;5037890;28;20061;-78
2022/01/18 05:08:26;;;;;;;26.42;2.75;;;;;;;;;;5037994;28;20394;-79
2022/01/18 05:10:55;;;;;;;27.63;2.92;;;;;;;;;;5038099;28;20026;-78
2022/01/18 05:16:28;;;;;;;24.70;3.30;;;;;;;;;;5037075;28;20107;-78
2022/01/18 05:19:07;;;;;;;24.20;2.75;;;;;;;;;;5037398;28;20105;-80
2022/01/18 05:22:57;;;;;;;36.55;3.00;;;;;;;;;;5042058;28;20063;-78
2022/01/18 05:24:30;;;;;;;26.00;3.15;;;;;;;;;;5044338;28;20038;-79
2022/01/18 05:26:56;;;;;;;23.40;2.70;;;;;;;;;;5043219;28;20076;-81
2022/01/18 05:29:22;;;;;;;38.40;2.95;;;;;;;;;;5034912;28;20051;-79
2022/01/18 05:31:47;;;;;;;23.10;2.83;;;;;;;;;;5033301;28;20025;-78
2022/01/18 05:34:13;;;;;;;29.15;2.97;;;;;;;;;;5034866;28;20033;-78
2022/01/18 05:36:39;;;;;;;28.08;2.70;;;;;;;;;;5035842;28;20184;-79
2022/01/18 05:39:06;;;;;;;41.15;3.63;;;;;;;;;;5036784;28;20032;-77
2022/01/18 05:41:31;;;;;;;24.63;2.58;;;;;;;;;;5037153;28;20097;-79
2022/01/18 05:43:57;;;;;;;29.70;2.83;;;;;;;;;;5037189;28;20053;-80
2022/01/18 05:46:22;;;;;;;26.30;2.58;;;;;;;;;;5036854;28;20052;-79
2022/01/18 05:48:47;;;;;;;28.65;2.95;;;;;;;;;;5036642;28;20199;-79
2022/01/18 05:51:13;;;;;;;26.83;2.50;;;;;;;;;;5036659;28;20022;-78
2022/01/18 05:53:39;;;;;;;26.35;3.10;;;;;;;;;;5036995;28;20040;-79
2022/01/18 05:56:08;;;;;;;22.92;3.40;;;;;;;;;;5036711;28;20047;-79
2022/01/18 05:58:33;;;;;;;26.15;3.13;;;;;;;;;;5037092;28;20544;-79
2022/01/18 06:00:58;;;;;;;30.33;3.17;;;;;;;;;;5038631;28;20025;-80
2022/01/18 06:03:33;;;;;;;29.08;3.13;;;;;;;;;;5040922;28;20025;-79
2022/01/18 06:08:44;;;;;;;27.42;2.58;;;;;;;;;;5039801;28;20449;-80
2022/01/18 06:11:09;;;;;;;26.65;2.67;;;;;;;;;;5039183;28;20116;-79
2022/01/18 06:13:35;;;;;;;32.90;3.33;;;;;;;;;;5041011;28;20075;-80
2022/01/18 06:16:01;;;;;;;19.95;2.60;;;;;;;;;;5040271;28;20067;-79
2022/01/18 06:18:26;;;;;;;23.80;3.05;;;;;;;;;;5039829;28;20458;-79
2022/01/18 06:20:51;;;;;;;20.58;2.78;;;;;;;;;;5039807;28;20028;-80
2022/01/18 06:23:17;;;;;;;28.40;2.92;;;;;;;;;;5039228;28;20060;-79
2022/01/18 06:25:43;;;;;;;26.55;2.88;;;;;;;;;;5039594;28;20100;-80
2022/01/18 06:28:08;;;;;;;28.83;3.08;;;;;;;;;;5039636;28;20029;-78
2022/01/18 06:30:34;;;;;;;25.10;2.75;;;;;;;;;;5039756;28;20033;-80
2022/01/18 06:32:59;;;;;;;24.73;2.90;;;;;;;;;;5039338;28;20398;-80
2022/01/18 06:35:25;;;;;;;27.95;3.13;;;;;;;;;;5038941;28;20025;-79
2022/01/18 06:37:50;;;;;;;18.45;2.80;;;;;;;;;;5039517;28;20033;-78
2022/01/18 06:40:16;;;;;;;24.75;2.83;;;;;;;;;;5039553;28;20450;-80
2022/01/18 06:42:42;;;;;;;21.25;3.25;;;;;;;;;;5038972;28;20025;-80
2022/01/18 06:45:08;;;;;;;17.50;2.63;;;;;;;;;;5039055;28;20026;-79
2022/01/18 06:47:34;;;;;;;23.85;3.55;;;;;;;;;;5039324;28;20044;-80
2022/01/18 06:49:59;;;;;;;21.63;3.03;;;;;;;;;;5039778;28;20530;-80
2022/01/18 06:52:24;;;;;;;26.90;3.05;;;;;;;;;;5039913;28;20391;-78
2022/01/18 06:54:50;;;;;;;26.27;2.92;;;;;;;;;;5038845;28;20017;-81
2022/01/18 06:57:15;;;;;;;28.55;3.67;;;;;;;;;;5040066;28;20033;-79
2022/01/18 06:59:40;;;;;;;23.67;3.33;;;;;;;;;;5039587;28;20124;-80
2022/01/18 07:02:06;;;;;;;20.98;2.70;;;;;;;;;;5039540;28;20021;-81
2022/01/18 07:04:31;;;;;;;16.77;2.40;;;;;;;;;;5039894;28;20033;-80
2022/01/18 07:06:57;;;;;;;31.02;3.17;;;;;;;;;;5039021;28;20021;-78
2022/01/18 07:09:25;;;;;;;21.17;2.85;;;;;;;;;;5038231;28;20060;-79
2022/01/18 07:11:52;;;;;;;26.40;3.20;;;;;;;;;;5038228;28;20514;-80
2022/01/18 07:14:18;;;;;;;26.35;3.22;;;;;;;;;;5038442;28;20059;-79
2022/01/18 07:16:43;;;;;;;35.47;3.58;;;;;;;;;;5038677;28;20025;-79
2022/01/18 07:19:08;;;;;;;24.38;3.08;;;;;;;;;;5020446;28;20506;-79
2022/01/18 07:21:33;;;;;;;28.02;3.28;;;;;;;;;;5037333;28;20030;-78
2022/01/18 07:24:04;;;;;;;15.95;3.42;;;;;;;;;;5037569;28;20028;-79
2022/01/18 07:26:29;;;;;;;31.50;3.42;;;;;;;;;;5038897;28;20021;-78
2022/01/18 07:28:55;;;;;;;37.15;3.50;;;;;;;;;;5037669;28;20032;-79
2022/01/18 07:31:20;;;;;;;29.05;3.75;;;;;;;;;;5038155;28;20112;-79
2022/01/18 07:33:45;;;;;;;21.05;3.22;;;;;;;;;;5037077;28;20108;-78
2022/01/18 07:36:10;;;;;;;19.83;2.85;;;;;;;;;;5036634;28;20021;-79
2022/01/18 07:38:36;;;;;;;20.02;2.92;;;;;;;;;;5037677;28;20028;-80
2022/01/18 07:41:01;;;;;;;22.70;3.15;;;;;;;;;;5036629;28;20510;-79
2022/01/18 07:43:26;;;;;;;30.50;3.55;;;;;;;;;;5037337;28;20064;-81
2022/01/18 07:45:52;;;;;;;25.13;3.00;;;;;;;;;;5037201;28;20021;-80
2022/01/18 07:48:21;;;;;;;29.17;3.10;;;;;;;;;;5019501;28;20116;-78
2022/01/18 07:50:47;;;;;;;14.40;2.13;;;;;;;;;;5037023;28;20021;-79
2022/01/18 07:53:12;;;;;;;25.40;2.88;;;;;;;;;;5040082;28;20052;-79
2022/01/18 07:55:38;;;;;;;31.95;3.00;;;;;;;;;;5040386;28;20029;-80
2022/01/18 07:58:03;;;;;;;25.13;2.85;;;;;;;;;;5040544;28;20025;-81
2022/01/18 08:00:29;;;;;;;22.65;3.25;;;;;;;;;;5037410;28;20045;-79
2022/01/18 08:03:04;;;;;;;17.88;2.20;;;;;;;;;;5035422;28;20036;-85
2022/01/18 08:05:29;;;;;;;21.75;2.97;;;;;;;;;;5035607;28;20041;-79
2022/01/18 08:07:55;;;;;;;21.40;2.75;;;;;;;;;;5035918;28;20108;-78
2022/01/18 08:10:20;;;;;;;23.33;2.58;;;;;;;;;;5036230;28;20395;-78
2022/01/18 08:12:46;;;;;;;16.02;2.80;;;;;;;;;;5035532;28;20410;-77
2022/01/18 08:15:16;;;;;;;45.55;15.35;;;;;;;;;;5035751;28;20034;-79
2022/01/18 08:17:43;;;;;;;32.65;3.17;;;;;;;;;;5035621;28;20485;-79
2022/01/18 08:20:13;;;;;;;18.23;2.45;;;;;;;;;;5036456;28;20104;-79
2022/01/18 08:22:46;;;;;;;20.23;2.80;;;;;;;;;;5018552;28;20030;-79
2022/01/18 08:25:12;;;;;;;18.48;2.28;;;;;;;;;;5036202;28;20029;-78
2022/01/18 08:27:39;;;;;;;14.43;2.13;;;;;;;;;;5037425;28;20044;-79
2022/01/18 08:30:07;;;;;;;20.90;2.85;;;;;;;;;;5037117;28;20029;-80
2022/01/18 08:32:32;;;;;;;14.85;2.10;;;;;;;;;;5036925;28;20030;-78
2022/01/18 08:34:57;;;;;;;10.68;1.52;;;;;;;;;;5037757;28;20025;-80
2022/01/18 08:37:22;;;;;;;12.68;2.08;;;;;;;;;;5037620;28;20026;-81
2022/01/18 08:39:48;;;;;;;16.70;2.35;;;;;;;;;;5037334;28;20108;-81
2022/01/18 08:42:13;;;;;;;16.23;2.20;;;;;;;;;;5039011;28;20034;-84
2022/01/18 08:44:43;;;;;;;13.05;1.77;;;;;;;;;;5038858;28;20445;-80
2022/01/18 08:47:12;;;;;;;14.68;2.30;;;;;;;;;;5037342;28;20025;-81
2022/01/18 08:49:37;;;;;;;15.93;1.92;;;;;;;;;;5020556;28;20048;-80
2022/01/18 08:52:04;;;;;;;13.23;2.35;;;;;;;;;;5038052;28;20089;-81
2022/01/18 08:54:29;;;;;;;12.18;1.88;;;;;;;;;;5037329;28;20087;-79
2022/01/18 08:56:54;;;;;;;18.98;2.70;;;;;;;;;;5036272;28;20033;-81
2022/01/18 08:59:20;;;;;;;20.05;2.10;;;;;;;;;;5020108;28;20104;-80
2022/01/18 09:01:45;;;;;;;19.88;2.63;;;;;;;;;;5037750;28;20020;-80
2022/01/18 09:04:10;;;;;;;14.27;2.67;;;;;;;;;;5037268;28;20018;-80
2022/01/18 09:06:37;;;;;;;20.13;2.17;;;;;;;;;;5036474;28;20032;-79
2022/01/18 09:09:04;;;;;;;20.10;2.67;;;;;;;;;;5037846;28;20422;-79
2022/01/18 09:11:31;;;;;;;21.50;2.45;;;;;;;;;;5037615;28;20026;-78
2022/01/18 09:13:56;;;;;;;15.70;2.20;;;;;;;;;;5037158;28;20021;-80
2022/01/18 09:16:21;;;;;;;23.02;2.50;;;;;;;;;;5037365;28;20040;-78
2022/01/18 09:18:50;;;;;;;21.85;2.95;;;;;;;;;;5038034;28;20065;-79
2022/01/18 09:21:15;;;;;;;14.75;2.22;;;;;;;;;;5038032;28;20021;-79
2022/01/18 09:23:42;;;;;;;14.88;2.40;;;;;;;;;;5036646;28;20172;-80
2022/01/18 09:26:07;;;;;;;19.80;2.08;;;;;;;;;;5037975;28;20416;-79
2022/01/18 09:28:32;;;;;;;22.65;2.42;;;;;;;;;;5036896;28;20033;-81
2022/01/18 09:30:59;;;;;;;19.80;2.75;;;;;;;;;;5036779;28;20411;-80
2022/01/18 09:33:24;;;;;;;17.63;2.70;;;;;;;;;;5036364;28;20022;-79
2022/01/18 09:35:50;;;;;;;17.40;3.08;;;;;;;;;;5038186;28;20029;-79
2022/01/18 09:38:15;;;;;;;23.27;2.08;;;;;;;;;;5041652;28;20100;-81
2022/01/18 09:40:44;;;;;;;22.33;2.50;;;;;;;;;;5022709;28;20053;-78
2022/01/18 09:43:13;;;;;;;13.93;2.47;;;;;;;;;;5040640;28;20568;-80
2022/01/18 09:45:41;;;;;;;14.75;2.40;;;;;;;;;;5023417;28;20033;-81
2022/01/18 09:48:07;;;;;;;16.38;2.90;;;;;;;;;;5041161;28;20025;-80
2022/01/18 09:50:34;;;;;;;12.27;2.10;;;;;;;;;;5041088;28;20114;-80
2022/01/18 09:53:00;;;;;;;15.93;2.63;;;;;;;;;;5040589;28;20495;-80
2022/01/18 09:55:30;;;;;;;19.70;2.80;;;;;;;;;;5041425;28;20363;-80
2022/01/18 09:57:57;;;;;;;8.65;1.88;;;;;;;;;;5040556;28;20101;-79
2022/01/18 10:00:25;;;;;;;20.00;2.83;;;;;;;;;;5039635;28;20025;-80
2022/01/18 10:03:04;;;;;;;13.32;2.72;;;;;;;;;;5040988;28;20099;-80
2022/01/18 10:05:33;;;;;;;34.53;3.13;;;;;;;;;;5042357;28;20021;-80
2022/01/18 10:08:05;;;;;;;14.52;2.70;;;;;;;;;;5041244;28;20541;-81
2022/01/18 10:10:38;;;;;;;14.27;2.30;;;;;;;;;;5041833;28;20032;-79
2022/01/18 10:13:03;;;;;;;8.87;1.97;;;;;;;;;;5041538;28;20028;-79
2022/01/18 10:15:29;;;;;;;11.00;2.00;;;;;;;;;;5023633;28;20326;-79
2022/01/18 10:18:05;;;;;;;17.48;2.65;;;;;;;;;;5041154;28;20063;-79
2022/01/18 10:20:31;;;;;;;11.20;2.30;;;;;;;;;;5041820;28;20105;-80
2022/01/18 10:22:56;;;;;;;14.93;2.53;;;;;;;;;;5040875;28;20122;-80
2022/01/18 10:25:26;;;;;;;13.52;2.67;;;;;;;;;;5041568;28;20391;-80
2022/01/18 10:27:54;;;;;;;10.13;2.10;;;;;;;;;;5023092;28;20022;-78
2022/01/18 10:30:43;;;;;;;11.63;2.42;;;;;;;;;;5040863;28;20045;-79
2022/01/18 10:33:26;;;;;;;20.23;3.25;;;;;;;;;;5041108;28;20037;-81
2022/01/18 10:36:10;;;;;;;9.40;2.03;;;;;;;;;;5041226;28;20087;-80
2022/01/18 10:38:38;;;;;;;17.50;3.30;;;;;;;;;;5040737;28;20035;-80
2022/01/18 10:41:28;;;;;;;15.52;2.58;;;;;;;;;;5040829;28;20044;-81
2022/01/18 10:44:14;;;;;;;12.18;2.40;;;;;;;;;;5039312;28;20036;-80
2022/01/18 10:46:41;;;;;;;17.42;2.83;;;;;;;;;;5040433;28;20029;-80
2022/01/18 10:49:07;;;;;;;12.70;2.28;;;;;;;;;;5040191;28;20053;-81
2022/01/18 10:51:36;;;;;;;9.73;2.03;;;;;;;;;;5040315;28;20076;-80
2022/01/18 10:54:04;;;;;;;12.02;2.47;;;;;;;;;;5042061;28;20115;-80
2022/01/18 10:56:44;;;;;;;14.38;2.78;;;;;;;;;;5041330;28;20479;-79
2022/01/18 10:59:23;;;;;;;9.35;2.17;;;;;;;;;;5041200;28;20037;-80
2022/01/18 11:02:13;;;;;;;18.55;2.70;;;;;;;;;;5007553;28;20124;-79
2022/01/18 11:04:42;;;;;;;13.73;2.60;;;;;;;;;;5040377;28;20025;-80
2022/01/18 11:07:08;;;;;;;14.85;2.47;;;;;;;;;;5039763;28;20025;-80
2022/01/18 11:09:35;;;;;;;9.13;2.15;;;;;;;;;;5039519;28;20430;-79
2022/01/18 11:12:00;;;;;;;6.47;2.10;;;;;;;;;;5021576;28;20022;-80
2022/01/18 11:14:26;;;;;;;8.48;2.35;;;;;;;;;;5040206;28;20352;-80
2022/01/18 11:16:56;;;;;;;17.30;2.22;;;;;;;;;;5039784;28;20040;-81
2022/01/18 11:21:50;;;;;;;8.13;1.92;;;;;;;;;;5039672;28;20514;-79
2022/01/18 11:24:17;;;;;;;15.75;2.42;;;;;;;;;;5039213;28;20065;-79
2022/01/18 11:26:44;;;;;;;13.75;2.17;;;;;;;;;;5020517;28;20123;-80
2022/01/18 11:29:10;;;;;;;13.07;1.92;;;;;;;;;;5039658;28;20033;-80
2022/01/18 11:31:36;;;;;;;8.98;2.25;;;;;;;;;;5039130;28;20021;-79
2022/01/18 11:34:05;;;;;;;11.68;2.40;;;;;;;;;;5039791;28;20541;-79
2022/01/18 11:36:39;;;;;;;9.75;2.10;;;;;;;;;;5038999;28;20029;-80
2022/01/18 11:39:07;;;;;;;8.98;1.98;;;;;;;;;;5038855;28;20036;-80
2022/01/18 11:41:35;;;;;;;9.85;1.88;;;;;;;;;;5038613;28;20025;-80
2022/01/18 11:44:16;;;;;;;6.20;2.17;;;;;;;;;;5038577;28;20024;-80
2022/01/18 11:47:04;;;;;;;10.07;2.13;;;;;;;;;;5038188;28;20120;-80
2022/01/18 11:49:32;;;;;;;9.82;1.85;;;;;;;;;;5038327;28;20044;-80
2022/01/18 11:52:05;;;;;;;10.35;1.58;;;;;;;;;;5038725;28;20395;-79
2022/01/18 11:57:15;;;;;;;7.97;1.80;;;;;;;;;;5038272;28;20266;-81
2022/01/18 11:59:40;;;;;;;7.70;1.63;;;;;;;;;;5037444;28;20048;-81
2022/01/18 12:02:07;;;;;;;7.03;1.70;;;;;;;;;;5037302;28;20030;-79
2022/01/18 12:05:00;;;;;;;8.85;2.17;;;;;;;;;;5037480;28;20025;-79
2022/01/18 12:07:34;;;;;;;7.10;1.77;;;;;;;;;;5037322;28;20055;-79
2022/01/18 12:10:05;;;;;;;7.55;1.90;;;;;;;;;;5037040;28;20105;-79
2022/01/18 12:12:39;;;;;;;7.70;1.90;;;;;;;;;;5037109;28;20021;-79
2022/01/18 12:15:26;;;;;;;7.72;1.90;;;;;;;;;;5036651;28;20071;-77
2022/01/18 12:17:52;;;;;;;5.55;2.10;;;;;;;;;;5036716;28;20494;-78
2022/01/18 12:20:37;;;;;;;4.95;1.95;;;;;;;;;;5036364;28;20083;-78
2022/01/18 12:23:03;;;;;;;6.90;1.85;;;;;;;;;;5035822;28;20075;-78
2022/01/18 12:25:33;;;;;;;9.70;2.22;;;;;;;;;;5035877;28;20033;-78
2022/01/18 12:28:20;;;;;;;6.82;1.90;;;;;;;;;;5017962;28;20060;-79
2022/01/18 12:31:04;;;;;;;8.63;2.22;;;;;;;;;;5035422;28;20021;-78
2022/01/18 12:33:43;;;;;;;5.53;1.58;;;;;;;;;;5036591;28;20097;-79
2022/01/18 12:36:29;;;;;;;7.25;1.70;;;;;;;;;;5035990;28;20041;-79
2022/01/18 12:38:58;;;;;;;4.78;1.90;;;;;;;;;;5036885;28;20080;-80
2022/01/18 12:41:51;;;;;;;5.93;1.30;;;;;;;;;;5018767;28;20018;-78
2022/01/18 12:44:22;;;;;;;12.40;2.10;;;;;;;;;;5036677;28;20092;-79
2022/01/18 12:46:51;;;;;;;10.48;2.15;;;;;;;;;;5036638;28;20071;-79
2022/01/18 12:49:18;;;;;;;5.55;1.77;;;;;;;;;;5036145;28;20108;-79
2022/01/18 12:51:43;;;;;;;7.93;2.08;;;;;;;;;;5036098;28;20090;-78
2022/01/18 12:54:09;;;;;;;10.85;2.60;;;;;;;;;;5036121;28;20033;-78
2022/01/18 12:56:34;;;;;;;8.40;2.17;;;;;;;;;;5018360;28;20053;-78
2022/01/18 12:59:04;;;;;;;9.18;2.03;;;;;;;;;;5036209;28;20479;-78
2022/01/18 13:01:30;;;;;;;8.90;2.00;;;;;;;;;;5036222;28;20474;-79
2022/01/18 13:03:56;;;;;;;9.82;1.92;;;;;;;;;;5034766;28;20028;-78
2022/01/18 13:06:24;;;;;;;8.68;2.10;;;;;;;;;;5036464;28;20033;-80
2022/01/18 13:08:50;;;;;;;4.82;1.75;;;;;;;;;;5035840;28;20041;-78
2022/01/18 13:11:19;;;;;;;11.80;1.90;;;;;;;;;;5035458;28;20052;-79
2022/01/18 13:13:53;;;;;;;7.40;2.10;;;;;;;;;;5018995;28;20032;-78
2022/01/18 13:26:46;;;;;;;7.30;2.10;;;;;;;;;;5040232;28;20032;-78
2022/01/18 13:29:19;;;;;;;7.30;2.03;;;;;;;;;;5040612;28;20044;-79
2022/01/18 13:31:47;;;;;;;8.73;1.60;;;;;;;;;;5042061;28;20017;-78
2022/01/18 13:34:15;;;;;;;5.25;1.60;;;;;;;;;;5044221;28;20029;-78
2022/01/18 13:36:48;;;;;;;8.38;2.20;;;;;;;;;;5040653;28;20059;-78
2022/01/18 13:39:27;;;;;;;7.63;1.83;;;;;;;;;;5040171;28;20090;-77
2022/01/18 13:41:53;;;;;;;4.85;1.63;;;;;;;;;;5038646;28;20053;-79
2022/01/18 13:44:18;;;;;;;6.25;1.88;;;;;;;;;;5036587;28;20037;-79
2022/01/18 13:46:44;;;;;;;11.23;1.75;;;;;;;;;;5035160;28;20375;-78
2022/01/18 13:49:09;;;;;;;7.30;1.48;;;;;;;;;;5035705;28;20021;-79
2022/01/18 13:51:37;;;;;;;6.43;1.55;;;;;;;;;;5035294;28;20071;-78
2022/01/18 13:54:09;;;;;;;9.00;1.85;;;;;;;;;;5035015;28;20030;-77
2022/01/18 13:56:46;;;;;;;5.80;1.73;;;;;;;;;;5035754;28;20026;-79
2022/01/18 13:59:12;;;;;;;6.40;1.40;;;;;;;;;;5035361;28;20474;-78
2022/01/18 14:01:41;;;;;;;4.57;1.23;;;;;;;;;;5036228;28;20025;-79
2022/01/18 14:04:29;;;;;;;5.95;1.52;;;;;;;;;;5036262;28;20029;-79
2022/01/18 14:06:56;;;;;;;8.88;1.52;;;;;;;;;;5036773;28;20029;-78
2022/01/18 14:09:25;;;;;;;4.63;1.48;;;;;;;;;;5037731;28;20026;-80
2022/01/18 14:11:53;;;;;;;6.72;1.52;;;;;;;;;;5036572;28;20017;-77
2022/01/18 14:14:29;;;;;;;7.22;1.98;;;;;;;;;;5020039;28;20044;-79
2022/01/18 14:17:00;;;;;;;10.23;1.70;;;;;;;;;;5036065;28;20033;-79
2022/01/18 14:19:28;;;;;;;5.47;1.60;;;;;;;;;;5019007;28;20022;-80
2022/01/18 14:21:55;;;;;;;7.85;1.55;;;;;;;;;;5021580;28;20018;-78
2022/01/18 14:24:22;;;;;;;4.90;1.30;;;;;;;;;;5024336;28;20032;-78
2022/01/18 14:26:51;;;;;;;6.60;1.50;;;;;;;;;;5042432;28;20029;-79
2022/01/18 14:29:18;;;;;;;6.25;1.40;;;;;;;;;;5041639;28;20398;-78
2022/01/18 14:32:08;;;;;;;8.63;1.63;;;;;;;;;;5042862;28;20036;-80
2022/01/18 14:34:36;;;;;;;9.32;2.08;;;;;;;;;;5043778;28;20039;-81
2022/01/18 14:37:03;;;;;;;7.40;1.65;;;;;;;;;;5042293;28;20072;-78
2022/01/18 14:39:29;;;;;;;3.97;1.23;;;;;;;;;;5041346;28;20026;-81
2022/01/18 14:42:03;;;;;;;4.22;1.40;;;;;;;;;;5041174;28;20056;-80
2022/01/18 14:44:47;;;;;;;6.35;1.65;;;;;;;;;;5040231;28;20470;-79
2022/01/18 14:47:26;;;;;;;10.05;1.80;;;;;;;;;;5040525;28;20052;-79
2022/01/18 14:49:56;;;;;;;3.78;1.55;;;;;;;;;;5040224;28;20038;-79
2022/01/18 14:52:24;;;;;;;4.18;1.70;;;;;;;;;;5022743;28;20045;-79
2022/01/18 14:54:49;;;;;;;3.17;1.50;;;;;;;;;;5039648;28;20029;-78
2022/01/18 14:57:15;;;;;;;5.93;1.95;;;;;;;;;;5039908;28;20070;-79
2022/01/18 14:59:40;;;;;;;6.75;1.70;;;;;;;;;;5040551;28;20041;-79
2022/01/18 15:02:07;;;;;;;6.10;1.63;;;;;;;;;;5039784;28;20029;-79
2022/01/18 15:04:32;;;;;;;10.10;2.17;;;;;;;;;;5040412;28;20031;-80
2022/01/18 15:06:58;;;;;;;8.13;1.80;;;;;;;;;;5040045;28;20401;-79
2022/01/18 15:09:28;;;;;;;9.18;1.60;;;;;;;;;;5040004;28;20501;-80
2022/01/18 15:11:54;;;;;;;9.73;1.58;;;;;;;;;;5039050;28;20022;-79
2022/01/18 15:14:20;;;;;;;6.47;1.60;;;;;;;;;;5038565;28;20113;-78
2022/01/18 15:16:45;;;;;;;4.72;1.33;;;;;;;;;;5020307;28;20031;-79
2022/01/18 15:19:11;;;;;;;5.07;1.67;;;;;;;;;;5038788;28;20027;-78
2022/01/18 15:21:36;;;;;;;6.25;1.30;;;;;;;;;;5038748;28;20049;-79
2022/01/18 15:24:01;;;;;;;6.47;1.50;;;;;;;;;;5038300;28;20064;-79
2022/01/18 15:26:28;;;;;;;5.03;1.42;;;;;;;;;;5038835;28;20056;-79
2022/01/18 15:28:53;;;;;;;5.60;1.75;;;;;;;;;;5021794;28;20025;-78
2022/01/18 15:31:18;;;;;;;6.82;2.05;;;;;;;;;;5039098;28;20036;-79
2022/01/18 15:33:43;;;;;;;3.90;1.60;;;;;;;;;;5038316;28;20394;-80
2022/01/18 15:36:09;;;;;;;4.47;1.58;;;;;;;;;;5038509;28;20445;-79
2022/01/18 15:38:34;;;;;;;6.53;2.10;;;;;;;;;;5038580;28;20496;-80
2022/01/18 15:40:59;;;;;;;5.38;1.83;;;;;;;;;;5038918;28;20032;-79
2022/01/18 15:43:24;;;;;;;5.68;1.80;;;;;;;;;;5038824;28;20061;-79
2022/01/18 15:45:50;;;;;;;3.80;2.17;;;;;;;;;;5038279;28;20024;-79
2022/01/18 15:48:15;;;;;;;7.07;2.10;;;;;;;;;;5039199;28;20032;-81
2022/01/18 15:50:40;;;;;;;7.63;2.10;;;;;;;;;;5038520;28;20052;-79
2022/01/18 15:53:06;;;;;;;3.60;1.83;;;;;;;;;;5038485;28;20024;-80
2022/01/18 15:55:31;;;;;;;3.63;1.90;;;;;;;;;;5038144;28;20071;-80
2022/01/18 15:57:56;;;;;;;6.22;2.20;;;;;;;;;;5038087;28;20143;-79
2022/01/18 16:00:21;;;;;;;5.97;2.20;;;;;;;;;;5038113;28;20022;-80
2022/01/18 16:02:47;;;;;;;6.50;2.10;;;;;;;;;;5038298;28;20056;-79
2022/01/18 16:05:12;;;;;;;4.00;1.90;;;;;;;;;;5037995;28;20081;-79